Velovelo
Português Nederlands 日本語 中文
Español English čeština slovenčina
русский italiano polski norsk
français Deutsch svenska عربي
 
 vorige pagina
 Stuur naar een vriend
 Print dit artikel
 ---> Les Monts du Vaucluse 2008 : Résultats du Petit Parcours

En avant première, découvrez vos nouveaux espaces d’expression (en cours)
- www.forumvelo.com

ClNom PrénomCatC.cTemps............Ecart.........
1 CHAVENT Roland D = homme 30/39 -1 2h46:24.521
2 GRAZIANO Bernard E = homme 40/49 -1 2h54:25.581 8:01.060
3 AMAR Nicolas D = homme 30/39 -2 2h54:28.269 8:03.748
4 PINEDE Christian E = homme 40/49 -2 2h54:47.684 8:23.163
5 FERRY Jean François E = homme 40/49 -3 2h54:48.774 8:24.253
6 RONAT Frédéric D = homme 30/39 -3 2h54:51.791 8:27.270
7 RUBIU José D = homme 30/39 -4 2h55:22.868 8:58.347
8 VILLEMIN Philippe D = homme 30/39 -5 2h55:43.485 9:18.964
9 GIANNOLI Pascal E = homme 40/49 -4 2h55:58.966 9:34.445
9 TOPALIAW Laurent C = homme 18/29 -1 2h55:58.966 9:34.445
11 JEANJEAN Nicolas E = homme 40/49 -5 2h56:19.922 9:55.401
12 FOURET Christian E = homme 40/49 -6 2h58:03.286 11:38.765
13 FATTORE Raymond F = homme 50/59 -1 3h00:13.283 13:48.762
14 CARRIER Boris D = homme 30/39 -6 3h00:13.701 13:49.180
15 BELHOMME Alain E = homme 40/49 -7 3h00:15.387 13:50.866
16 WISSMANN Eugène F = homme 50/59 -2 3h00:18.333 13:53.812
17 BARTHELEMY Bernard E = homme 40/49 -8 3h00:23.274 13:58.753
18 GARNIER Jean Luc E = homme 40/49 -9 3h00:38.629 14:14.108
19 VINCENT Jean François D = homme 30/39 -7 3h01:07.687 14:43.166
20 VAN ZANTEN Jean Luc D = homme 30/39 -8 3h02:02.084 15:37.563
21 HABY Aurel F = homme 50/59 -3 3h02:16.385 15:51.864
22 PAPADAKIS Stéphane E = homme 40/49 -10 3h02:17.093 15:52.572
23 POITOU Serge E = homme 40/49 -11 3h02:17.792 15:53.271
24 PECHDO Didier F = homme 50/59 -4 3h02:18.739 15:54.218
25 CHAPPELLAZ Jean Baptiste C = homme 18/29 -2 3h02:19.160 15:54.639
26 DUQUESNE Stéphane E = homme 40/49 -12 3h02:19.505 15:54.984
27 CHASSAGNE Philippe F = homme 50/59 -5 3h02:19.985 15:55.464
28 ROSA Johann D = homme 30/39 -9 3h02:20.680 15:56.159
29 LE CLAINCHE Jimmy C = homme 18/29 -3 3h02:21.280 15:56.759
30 CAMILLIERI Stéphane C = homme 18/29 -4 3h02:30.779 16:06.258
31 BERTRAND Cyril D = homme 30/39 -10 3h02:31.074 16:06.553
31 BRUTTOMESSO Daniel E = homme 40/49 -13 3h02:31.074 16:06.553
33 BERTRAND Didier E = homme 40/49 -14 3h04:53.385 18:28.864
34 ROQUE Eric E = homme 40/49 -15 3h05:06.342 18:41.821
35 PONCET Alain F = homme 50/59 -6 3h05:20.991 18:56.470
36 BOUVIER Hervé E = homme 40/49 -16 3h05:21.340 18:56.819
37 BERTET Alain G = homme 60 /+ -1 3h05:33.551 19:09.030
38 LABAUME Christophe D = homme 30/39 -11 3h05:47.462 19:22.941
39 PERROTIN Dominique F = homme 50/59 -7 3h06:02.686 19:38.165
40 VINCENTI Bruno E = homme 40/49 -17 3h06:13.454 19:48.933
41 PETITPREZ Benoit D = homme 30/39 -12 3h07:33.203 21:08.682
42 MESSY Patrick E = homme 40/49 -18 3h07:35.604 21:11.083
43 FOROT Yves F = homme 50/59 -8 3h07:38.856 21:14.335
43 MICHEL Jean Marc E = homme 40/49 -19 3h07:38.856 21:14.335
45 CALABRO Philippe E = homme 40/49 -20 3h07:40.607 21:16.086
46 NOEL Eric E = homme 40/49 -21 3h07:41.585 21:17.064
47 CHARRIER Michael D = homme 30/39 -13 3h07:41.956 21:17.435
48 BRASSELET Marc G = homme 60 /+ -2 3h07:42.577 21:18.056
49 GOASMAT Yann D = homme 30/39 -14 3h07:43.088 21:18.567
50 AT Frédéric D = homme 30/39 -15 3h07:43.311 21:18.790
51 MARTIN Alex E = homme 40/49 -22 3h07:44.426 21:19.905
52 CAUSSEL Lilian D = homme 30/39 -16 3h07:45.328 21:20.807
53 ESCOFIER Franck D = homme 30/39 -17 3h07:47.143 21:22.622
54 RENDU Stéphane F = homme 50/59 -9 3h07:49.508 21:24.987
55 FABRE Olivier D = homme 30/39 -18 3h07:50.627 21:26.106
56 ROUVROY Jean Luc E = homme 40/49 -23 3h07:54.950 21:30.429
57 BERTIN Patrick E = homme 40/49 -24 3h07:55.258 21:30.737
58 LE DISEZ Dominique E = homme 40/49 -25 3h07:58.655 21:34.134
59 CARPENTIER Bruno E = homme 40/49 -26 3h08:05.668 21:41.147
60 ANDREOTTI Patrick E = homme 40/49 -27 3h08:08.372 21:43.851
61 ESPANET Patrick E = homme 40/49 -28 3h08:30.996 22:06.475
62 PALMER Alain D = homme 30/39 -19 3h08:38.762 22:14.241
63 SCHERB Jean Christophe E = homme 40/49 -29 3h08:51.561 22:27.040
64 BERTOLINO Fabrice E = homme 40/49 -30 3h08:52.590 22:28.069
65 BRIANT Jacques G = homme 60 /+ -3 3h08:53.209 22:28.688
66 MALLET Patrick G = homme 60 /+ -4 3h08:55.327 22:30.806
67 FOLLENBACH Patrick E = homme 40/49 -31 3h08:59.152 22:34.631
68 FETES Christian D = homme 30/39 -20 3h09:46.705 23:22.184
69 HERVIER Jean Luc F = homme 50/59 -10 3h10:18.610 23:54.089
70 IORFIDA Michel E = homme 40/49 -32 3h10:19.417 23:54.896
71 FONDERE Maurice E = homme 40/49 -33 3h10:33.617 24:09.096
72 RIVIERE Arnaud D = homme 30/39 -21 3h10:39.462 24:14.941
72 ALAMO Cedric D = homme 30/39 -21 3h10:39.462 24:14.941
72 SCHWIND Michel G = homme 60 /+ -5 3h10:39.462 24:14.941
72 FERRERE Gérard G = homme 60 /+ -5 3h10:39.462 24:14.941
72 CRUPEAUX Eric E = homme 40/49 -34 3h10:39.462 24:14.941
72 ALBOUI Didier E = homme 40/49 -34 3h10:39.462 24:14.941
72 HUET Jean Charles F = homme 50/59 -11 3h10:39.462 24:14.941
72 LIZARRALDE Jean Claude F = homme 50/59 -11 3h10:39.462 24:14.941
72 DAUBAS Jean Pierre F = homme 50/59 -11 3h10:39.462 24:14.941
72 FOURET Frédéric D = homme 30/39 -21 3h10:39.462 24:14.941
72 NOIZAT Yannick E = homme 40/49 -34 3h10:39.462 24:14.941
72 ROSSI Michel E = homme 40/49 -34 3h10:39.462 24:14.941
72 FABRE Thierry E = homme 40/49 -34 3h10:39.462 24:14.941
72 COTIGNOLA Mathias D = homme 30/39 -21 3h10:39.462 24:14.941
86 REPUSSARD Yoan D = homme 30/39 -25 3h17:31.074 31:06.553
87 GUIRAND Hervé E = homme 40/49 -39 3h17:53.635 31:29.114
88 LORIDAN Dominique F = homme 50/59 -14 3h19:43.864 33:19.343
89 LABERTRANDE Pascal E = homme 40/49 -40 3h19:52.500 33:27.979
90 CHAPIGNAC Jean Paul G = homme 60 /+ -7 3h20:09.160 33:44.639
91 COUDENE Sébastien D = homme 30/39 -26 3h20:26.150 34:01.629
92 JACQUET Pierre F = homme 50/59 -15 3h21:39.256 35:14.735
93 ROUMEAS David D = homme 30/39 -27 3h21:39.803 35:15.282
94 KEISER Christopher D = homme 30/39 -28 3h21:42.178 35:17.657
95 OLIVE André G = homme 60 /+ -8 3h21:45.741 35:21.220
96 DALLE Christelle A = dame 18/39 -1 3h21:48.026 35:23.505
97 GOLDSMITH John E = homme 40/49 -41 3h21:56.632 35:32.111
98 MOULIN William D = homme 30/39 -29 3h23:24.776 37:00.255
99 JUILLARD Franck D = homme 30/39 -30 3h25:39.462 39:14.941
100 RAMIREZ David D = homme 30/39 -31 3h26:31.748 40:07.227
101 LEXTRAIT Fabrice E = homme 40/49 -42 3h26:37.309 40:12.788
102 VENTO Louis G = homme 60 /+ -9 3h26:38.467 40:13.946
103 MARTIN Jean Michel E = homme 40/49 -43 3h26:40.542 40:16.021
104 CAUSSEL Louis G = homme 60 /+ -10 3h27:09.701 40:45.180
105 RAYSSAC Thierry E = homme 40/49 -44 3h27:14.474 40:49.953
106 PASCAL Eric E = homme 40/49 -45 3h27:18.522 40:54.001
107 BARDE Jean Charles G = homme 60 /+ -11 3h27:25.856 41:01.335
108 GUIBERT Sylvain D = homme 30/39 -32 3h27:30.173 41:05.652
109 TROUSY Norbert F = homme 50/59 -16 3h27:31.410 41:06.889
110 BILLIOUD Philippe G = homme 60 /+ -12 3h27:37.236 41:12.715
111 SINTES Jean Yves E = homme 40/49 -46 3h27:44.091 41:19.570
112 LOZACH Fabien C = homme 18/29 -5 3h27:44.731 41:20.210
113 TAFER Sébastien D = homme 30/39 -33 3h27:45.056 41:20.535
114 SOLE Réginald D = homme 30/39 -34 3h27:45.513 41:20.992
115 MOUSSAY Christine B= dame 40 et + -1 3h27:45.759 41:21.238
116 MINAUD Stéphen E = homme 40/49 -47 3h27:47.592 41:23.071
117 JENOT Emile G = homme 60 /+ -13 3h27:50.391 41:25.870
118 JULIA Nathalie B= dame 40 et + -2 3h27:54.064 41:29.543
119 MALSERT Pascal D = homme 30/39 -35 3h27:54.417 41:29.896
120 JULIA Guy F = homme 50/59 -17 3h27:57.960 41:33.439
121 GUILMET Pascal E = homme 40/49 -48 3h27:58.588 41:34.067
122 PORTALES Antoine D = homme 30/39 -36 3h27:58.875 41:34.354
122 MONTJALLARD Patrick F = homme 50/59 -18 3h27:58.875 41:34.354
124 GAZEL Michel E = homme 40/49 -49 3h27:59.227 41:34.706
125 MUSSET Bernard F = homme 50/59 -19 3h28:20.607 41:56.086
126 FRUCHART Nathanael C = homme 18/29 -6 3h28:27.049 42:02.528
127 CAZENOVE Richard F = homme 50/59 -20 3h28:44.136 42:19.615
128 TOUNY Christian G = homme 60 /+ -14 3h28:54.161 42:29.640
129 RENOUF Samuel D = homme 30/39 -37 3h28:54.790 42:30.269
130 CASTELLI Fabrice D = homme 30/39 -38 3h28:57.444 42:32.923
131 GOUBET Gilles E = homme 40/49 -50 3h28:59.042 42:34.521
132 LEBRAT Joel D = homme 30/39 -39 3h29:07.964 42:43.443
133 LAUPEN Bruno D = homme 30/39 -40 3h29:29.476 43:04.955
134 BELHASSEN Jerémy C = homme 18/29 -7 3h29:40.104 43:15.583
135 LARRAS Georges E = homme 40/49 -51 3h30:13.483 43:48.962
136 QUEYREL Pierre E = homme 40/49 -52 3h30:17.654 43:53.133
137 AMICE Alain F = homme 50/59 -21 3h31:08.553 44:44.032
138 BACCEGA David G = homme 60 /+ -15 3h33:06.028 46:41.507
139 BOISLARD Guy G = homme 60 /+ -16 3h39:19.998 52:55.477
140 ROISSE Thierry D = homme 30/39 -41 3h42:21.325 55:56.804
141 ROSSELLO Stephen D = homme 30/39 -42 3h42:56.849 56:32.328
142 MANDRECCHIA Stéphane D = homme 30/39 -43 3h42:57.088 56:32.567
143 TINAZZI Thierry E = homme 40/49 -53 3h42:58.375 56:33.854
144 GAUTHIER Christian F = homme 50/59 -22 3h43:20.835 56:56.314
145 ROBERT Jean Luc F = homme 50/59 -23 3h45:05.333 58:40.812
146 NOIROT Eric E = homme 40/49 -54 3h45:33.930 59:09.409
147 JOUBERT Marc G = homme 60 /+ -17 3h46:01.566 59:37.045
148 INNOCENTI Olivier D = homme 30/39 -44 3h47:19.881 1h00:55.360
149 BOCCANFUSO Casimir G = homme 60 /+ -18 3h48:23.493 1h01:58.972
150 MARTINEZ Daniel F = homme 50/59 -24 3h48:28.436 1h02:03.915
150 MARQUET Eric D = homme 30/39 -45 3h48:28.436 1h02:03.915
150 CLOAREC Joel F = homme 50/59 -24 3h48:28.436 1h02:03.915
150 DELAGE Claude B= dame 40 et + -3 3h48:28.436 1h02:03.915
150 DELAGE Marc F = homme 50/59 -24 3h48:28.436 1h02:03.915
150 PAVEAU Laetitia A = dame 18/39 -2 3h48:28.436 1h02:03.915
156 BOCQUET Patrick F = homme 50/59 -27 3h50:54.000 1h04:29.479
157 SELLES Philippe E = homme 40/49 -55 3h51:03.704 1h04:39.183
158 OLIVE Dominique F = homme 50/59 -28 3h51:41.332 1h05:16.811
159 ROYER André F = homme 50/59 -29 3h53:13.562 1h06:49.041
160 EYMAR-DAUPHIN Patrick F = homme 50/59 -30 3h53:17.556 1h06:53.035
161 FAURE BRAC Gérard F = homme 50/59 -31 3h53:19.386 1h06:54.865
162 LASSISTE Didier 3h53:21.650 1h06:57.129
163 CHABERT Jean Philippe E = homme 40/49 -56 3h53:22.077 1h06:57.556
164 LABERTRANDE Paul G = homme 60 /+ -19 3h53:24.305 1h06:59.784
165 HIBOT Marcel G = homme 60 /+ -20 3h53:24.777 1h07:00.256
166 BARET Gilbert E = homme 40/49 -57 3h53:30.582 1h07:06.061
167 HARALAMBON Olivier E = homme 40/49 -58 3h54:37.698 1h08:13.177
168 BOUZANQUET Patrick E = homme 40/49 -59 3h57:22.330 1h10:57.809
169 REVOL Sandrine A = dame 18/39 -3 3h58:54.352 1h12:29.831
170 ROUDAUT Gilles E = homme 40/49 -60 3h58:54.878 1h12:30.357
171 ISNARD Gilbert G = homme 60 /+ -21 3h58:59.597 1h12:35.076
172 MOLINARI Robert F = homme 50/59 -32 3h59:09.240 1h12:44.719
173 MARINI Vincent F = homme 50/59 -33 3h59:36.570 1h13:12.049
174 DERMIGNY Roland 4h04:26.351 1h18:01.830
175 TABOURET Eric E = homme 40/49 -61 4h04:35.518 1h18:10.997
176 PIAT Roseline B= dame 40 et + -4 4h07:26.020 1h21:01.499
177 IMBERT Jean François F = homme 50/59 -34 4h08:41.812 1h22:17.291
178 BILLIAN Jacques F = homme 50/59 -35 4h09:16.172 1h22:51.651
179 GOUDARD Eric D = homme 30/39 -46 4h09:30.123 1h23:05.602
180 SOUQUES Jean Christophe E = homme 40/49 -62 4h10:09.810 1h23:45.289
181 LUNA Christophe D = homme 30/39 -47 4h12:12.193 1h25:47.672
182 MOUCHIROUD Eric E = homme 40/49 -63 4h13:02.881 1h26:38.360
183 TABOURET Jean Marc E = homme 40/49 -64 4h13:33.216 1h27:08.695
184 GRESSE Regis E = homme 40/49 -65 4h14:47.308 1h28:22.787
185 FOSSATI Laurent D = homme 30/39 -48 4h16:47.592 1h30:23.071
186 JOFFRON Pascale B= dame 40 et + -5 4h22:01.984 1h35:37.463
187 LARRIBERE Herick E = homme 40/49 -66 4h23:32.840 1h37:08.319
188 HENRY Olivier E = homme 40/49 -67 4h23:33.287 1h37:08.766
189 DETRAY Stéphane D = homme 30/39 -49 4h23:58.060 1h37:33.539
190 PONS Christophe E = homme 40/49 -68 4h24:00.352 1h37:35.831
191 PONS Jean Marie G = homme 60 /+ -22 4h24:02.168 1h37:37.647
192 DELMAS Yves F = homme 50/59 -36 4h24:17.722 1h37:53.201
193 DUPLAND Alain F = homme 50/59 -37 4h30:13.247 1h43:48.726
194 FIGUET André E = homme 40/49 -69 4h31:24.260 1h44:59.739
195 PONSON Denis E = homme 40/49 -70 4h31:25.100 1h45:00.579
196 HERLY Claude F = homme 50/59 -38 4h32:40.559 1h46:16.038
197 VANDEWALLE Michel F = homme 50/59 -39 4h33:50.279 1h47:25.758
198 LABARRE Dominique E = homme 40/49 -71 4h35:15.791 1h48:51.270
199 LABARRE Pascal E = homme 40/49 -72 4h37:01.984 1h50:37.463
200 TEYSSIER Yves G = homme 60 /+ -23 4h41:20.958 1h54:56.437
201 COUTELIS Alexandre F = homme 50/59 -40 4h43:19.649 1h56:55.128
202 GUILLOBEZ Bernadette B= dame 40 et + -6 4h44:17.407 1h57:52.886
203 NAVE Roland G = homme 60 /+ -24 4h46:05.662 1h59:41.141
204 PACHET / PERRIER Sylvie et Michel H= Tandem/Handi -1 4h46:08.334 1h59:43.813
205 LEGAT Daniel G = homme 60 /+ -25 4h47:45.724 2h01:21.203
206 SICRE Christophe D = homme 30/39 -50 4h50:55.394 2h04:30.873
207 LE DISEZ Evelyne B= dame 40 et + -7 4h53:40.545 2h07:16.024
208 LAMY Dominique B= dame 40 et + -8 4h53:48.315 2h07:23.794
209 GOUDARD Jean Pierre G = homme 60 /+ -26 4h53:50.467 2h07:25.946
210 MAURIN Jean Daniel F = homme 50/59 -41 4h54:04.219 2h07:39.698
211 GAU Michael D = homme 30/39 -51 4h55:49.931 2h09:25.410
212 MERCIER Alain G = homme 60 /+ -27 4h56:46.402 2h10:21.881
213 MERCIER Eric E = homme 40/49 -73 4h57:05.248 2h10:40.727
214 CHAUVIN Jacques F = homme 50/59 -42 4h57:43.747 2h11:19.226
215 DUCROT Serge F = homme 50/59 -43 4h58:10.275 2h11:45.754
216 DELAY Philippe E = homme 40/49 -74 4h59:27.889 2h13:03.368
217 CLEMENT Jean Marc F = homme 50/59 -44 4h59:28.808 2h13:04.287
218 CLEMENT Monique B= dame 40 et + -9 4h59:29.584 2h13:05.063
219 CLICHY Patrick F = homme 50/59 -45 4h59:30.288 2h13:05.767
220 AVY Françoise B= dame 40 et + -10 5h17:07.570 2h30:43.049
221 BARBESIER Jean Luc E = homme 40/49 -75 5h17:12.992 2h30:48.471
222 MAETZ Jean Pierre E = homme 40/49 -76 5h17:16.708 2h30:52.187

Voir -> Les Monts du Vaucluse 2008 : Résultats du Grand Parcours

Haut 









Haut  
 Privé-site   Auteursrecht-Copyright : klik hier om te lezen !